Latest Coastal Weather Observations for St Lawrence

IDQ60701

Issued at 3:51 am EST Saturday 3 December 2016 (issued every 10 minutes, with the page automatically refreshed every 10 minutes)

About coastal observations | Map of coastal stations | Coastal observations for QLD | Marine services | Other Formats
Station Details ID: 033210 Name: ST LAWRENCE Lat: -22.35 Lon: 149.52 Height: 9.19 m
Data from the previous 72 hours. | See also: Recent months at St Lawrence
Date/Time
EST
Temp
°C
Wind Pressure Rain since
9am
mm
Weather Cloud Vis
km
Sea
Height
m
Swell
Dir  Spd
kts
Gust
kts
hPa Trend Height
m
Period
s
Dir
03/03:30am 24.5 N 4 6 1011.0 - 0.0 - - - - - - -
03/03:00am 24.7 NNE 7 11 1010.7 - 0.0 - - - - - - -
03/02:30am 24.9 NNE 7 11 1010.7 - 0.0 - - - - - - -
03/02:00am 25.1 N 7 10 1011.0 - 0.0 - - - - - - -
03/01:30am 25.3 N 8 13 1011.2 - 0.0 - - - - - - -
03/01:00am 25.4 N 8 12 1011.3 - 0.0 - - - - - - -
03/12:30am 25.6 NNE 8 12 1011.5 - 0.0 - - - - - - -
03/12:00am 25.8 N 8 13 1011.9 - 0.0 - - - - - - -
 
Date/Time
EST
Temp
°C
Wind Pressure Rain since
9am
mm
Weather Cloud Vis
km
Sea
Height
m
Swell
Dir  Spd
kts
Gust
kts
hPa Trend Height
m
Period
s
Dir
02/11:30pm 26.0 N 9 13 1012.3 - 0.0 - - - - - - -
02/11:00pm 26.1 NNE 10 13 1012.5 - 0.0 - - - - - - -
02/10:30pm 26.1 N 8 11 1012.5 - 0.0 - - - - - - -
02/10:00pm 26.2 N 10 13 1012.7 - 0.0 - - - - - - -
02/09:30pm 26.4 NNE 9 13 1012.6 - 0.0 - - - - - - -
02/09:00pm 26.5 NNE 9 13 1012.5 - 0.0 - - - - - - -
02/08:30pm 26.8 NNE 10 13 1012.2 - 0.0 - - - - - - -
02/08:00pm 27.1 N 8 13 1012.1 - 0.0 - - - - - - -
02/07:30pm 27.0 NNE 11 14 1011.9 - 0.0 - - - - - - -
02/07:00pm 26.8 NNE 10 15 1011.5 - 0.0 - - - - - - -
02/06:30pm 27.0 NNE 11 16 1011.2 - 0.0 - - - - - - -
02/06:00pm 27.6 NNE 11 15 1010.9 - 0.0 - - - - - - -
02/05:30pm 28.4 NNE 12 16 1010.6 - 0.0 - - - - - - -
02/05:00pm 29.0 NNE 12 16 1010.3 - 0.0 - - - - - - -
02/04:30pm 29.5 NNE 12 17 1010.1 - 0.0 - - - - - - -
02/04:00pm 29.8 NE 13 17 1010.1 - 0.0 - - - - - - -
02/03:30pm 29.7 NE 13 17 1010.0 - 0.0 - - - - - - -
02/03:00pm 30.1 NE 14 19 1010.0 - 0.0 - - - - - - -
02/02:30pm 30.5 NE 13 18 1010.2 - 0.0 - - - - - - -
02/02:00pm 30.7 NE 14 18 1010.4 - 0.0 - - - - - - -
02/01:30pm 30.8 NE 14 19 1010.5 - 0.0 - - - - - - -
02/01:00pm 31.2 NE 13 17 1010.9 - 0.0 - - - - - - -
02/12:30pm 30.9 NE 13 18 1011.2 - 0.0 - - - - - - -
02/12:00pm 30.6 NE 12 17 1011.7 - 0.0 - - - - - - -
02/11:30am 30.7 NNE 11 16 1012.1 - 0.0 - - - - - - -
02/11:00am 30.5 NE 10 14 1012.4 - 0.0 - - - - - - -
02/10:30am 30.5 NE 10 14 1012.6 - 0.0 - - - - - - -
02/10:00am 29.8 NNE 10 13 1013.0 - 0.0 - - - - - - -
02/09:30am 29.7 NE 9 12 1013.1 - 0.0 - - - - - - -
02/09:00am 29.2 NNE 9 13 1013.1 - 0.0 - - - - - - -
02/08:30am 28.9 NE 7 12 1013.1 - 0.0 - - - - - - -
02/08:00am 28.4 NNE 9 12 1013.0 - 0.0 - - - - - - -
02/07:30am 26.3 NNW 3 5 1012.8 - 0.0 - - - - - - -
02/07:00am 25.2 NNE 3 5 1012.5 - 0.0 - - - - - - -
02/06:30am 23.5 SSW 1 3 1012.3 - 0.0 - - - - - - -
02/06:00am 21.2 WSW 2 4 1011.8 - 0.0 - - - - - - -
02/05:30am 20.5 SW 1 4 1011.4 - 0.0 - - - - - - -
02/05:00am 20.4 SW 1 3 1010.9 - 0.0 - - - - - - -
02/04:30am 20.4 CALM 0 3 1010.5 - 0.0 - - - - - - -
02/04:00am 20.6 CALM 0 0 1010.0 - 0.0 - - - - - - -
02/03:30am 20.7 WSW 1 4 1009.8 - 0.0 - - - - - - -
02/03:00am 21.2 WNW 2 5 1009.8 - 0.0 - - - - - - -
02/02:30am 22.5 N 4 5 1009.6 - 0.0 - - - - - - -
02/02:00am 23.0 NNE 4 6 1009.7 - 0.0 - - - - - - -
02/01:30am 22.9 NW 4 5 1009.5 - 0.0 - - - - - - -
02/01:00am 24.9 NNE 8 11 1009.5 - 0.0 - - - - - - -
02/12:30am 25.1 NNE 7 9 1009.8 - 0.0 - - - - - - -
02/12:00am 25.5 NNE 7 10 1010.2 - 0.0 - - - - - - -
 
Date/Time
EST
Temp
°C
Wind Pressure Rain since
9am
mm
Weather Cloud Vis
km
Sea
Height
m
Swell
Dir  Spd
kts
Gust
kts
hPa Trend Height
m
Period
s
Dir
01/11:30pm 25.4 NNE 6 8 1010.5 - 0.0 - - - - - - -
01/11:00pm 25.4 NNE 7 9 1010.6 - 0.0 - - - - - - -
01/10:30pm 25.5 NNE 7 9 1010.7 - 0.0 - - - - - - -
01/10:00pm 25.8 N 7 11 1010.8 - 0.0 - - - - - - -
01/09:30pm 26.0 NNE 7 9 1010.8 - 0.0 - - - - - - -
01/09:00pm 26.0 NNE 7 9 1010.5 - 0.0 - - - - - - -
01/08:30pm 26.2 NNE 7 9 1010.2 - 0.0 - - - - - - -
01/08:00pm 26.2 NNE 8 13 1009.8 - 0.0 - - - - - - -
01/07:30pm 26.3 NNE 8 11 1009.4 - 0.0 - - - - - - -
01/07:00pm 26.5 NNE 10 14 1009.4 - 0.0 - - - - - - -
01/06:30pm 27.0 NNE 10 15 1009.4 - 0.0 - - - - - - -
01/06:00pm 28.0 NNE 13 17 1008.8 - 0.0 - - - - - - -
01/05:30pm 28.5 NNE 10 15 1008.6 - 0.0 - - - - - - -
01/05:00pm 29.5 NNE 11 16 1008.3 - 0.0 - - - - - - -
01/04:30pm 29.5 NE 11 16 1008.1 - 0.0 - - - - - - -
01/04:00pm 29.5 NE 12 17 1008.2 - 0.0 - - - - - - -
01/03:30pm 29.9 NE 13 17 1008.3 - 0.0 - - - - - - -
01/03:00pm 31.0 NE 13 18 1008.7 - 0.0 - - - - - - -
01/02:30pm 30.4 NE 13 17 1009.0 - 0.0 - - - - - - -
01/02:00pm 31.1 NE 13 19 1009.3 - 0.0 - - - - - - -
01/01:30pm 30.8 NE 13 17 1009.7 - 0.0 - - - - - - -
01/01:00pm 29.9 NNE 12 16 1010.3 - 0.0 - - - - - - -
01/12:30pm 30.4 NE 12 17 1010.7 - 0.0 - - - - - - -
01/12:00pm 30.4 NNE 12 16 1011.1 - 0.0 - - - - - - -
01/11:30am 30.4 NE 11 15 1011.3 - 0.0 - - - - - - -
01/11:00am 30.1 NE 10 14 1011.7 - 0.0 - - - - - - -
01/10:30am 29.3 NE 11 15 1011.9 - 0.0 - - - - - - -
01/10:00am 29.0 NE 11 14 1012.1 - 0.0 - - - - - - -
01/09:30am 28.8 NE 11 16 1012.3 - 0.0 - - - - - - -
01/09:00am 28.4 NE 9 12 1012.7 - 0.0 - - - - - - -
01/08:30am 27.5 NNE 8 11 1012.7 - 0.0 - - - - - - -
01/08:00am 27.0 NNE 9 13 1012.4 - 0.0 - - - - - - -
01/07:30am 27.2 NNE 7 9 1012.2 - 0.0 - - - - - - -
01/07:00am 26.0 NNE 9 12 1011.6 - 0.0 - - - - - - -
01/06:30am 24.5 NW 5 7 1012.1 - 0.0 - - - - - - -
01/06:00am 22.9 W 1 4 1012.4 - 0.0 - - - - - - -
01/05:30am 22.4 WSW 3 4 1012.3 - 0.0 - - - - - - -
01/05:00am 21.9 WSW 3 5 1011.5 - 0.0 - - - - - - -
01/04:30am 22.1 CALM 0 0 1010.6 - 0.0 - - - - - - -
01/04:00am 22.3 WSW 1 3 1010.5 - 0.0 - - - - - - -
01/03:30am 22.7 CALM 0 0 1010.3 - 0.0 - - - - - - -
01/03:00am 22.4 CALM 0 2 1010.0 - 0.0 - - - - - - -
01/02:30am 23.4 WNW 1 4 1009.9 - 0.0 - - - - - - -
01/02:00am 24.8 NE 5 8 1010.1 - 0.0 - - - - - - -
01/01:30am 24.9 NNE 5 8 1010.2 - 0.0 - - - - - - -
01/01:00am 25.1 NE 8 11 1010.2 - 0.0 - - - - - - -
01/12:30am 25.5 NNE 7 10 1010.5 - 0.0 - - - - - - -
01/12:00am 25.3 NNE 7 9 1010.6 - 0.0 - - - - - - -
 
Date/Time
EST
Temp
°C
Wind Pressure Rain since
9am
mm
Weather Cloud Vis
km
Sea
Height
m
Swell
Dir  Spd
kts
Gust
kts
hPa Trend Height
m
Period
s
Dir
30/11:30pm 25.4 NNE 6 9 1010.8 - 0.0 - - - - - - -
30/11:00pm 25.4 NNE 8 12 1010.9 - 0.0 - - - - - - -
30/10:30pm 25.3 NE 8 12 1011.0 - 0.0 - - - - - - -
30/10:00pm 25.0 NE 6 8 1010.8 - 0.0 - - - - - - -
30/09:30pm 25.1 NNE 7 10 1010.5 - 0.0 - - - - - - -
30/09:00pm 25.0 NE 6 9 1010.3 - 0.0 - - - - - - -
30/08:30pm 25.2 NNE 8 11 1010.0 - 0.0 - - - - - - -
30/08:00pm 25.5 NNE 8 10 1010.0 - 0.0 - - - - - - -
30/07:30pm 25.6 NNE 7 10 1009.8 - 0.0 - - - - - - -
30/07:00pm 25.8 NNE 9 13 1009.5 - 0.0 - - - - - - -
30/06:30pm 26.1 NNE 11 15 1009.3 - 0.0 - - - - - - -
30/06:00pm 26.5 NNE 13 17 1008.8 - 0.0 - - - - - - -
30/05:30pm 27.3 NNE 10 15 1008.3 - 0.0 - - - - - - -
30/05:00pm 28.3 NNE 11 15 1007.9 - 0.0 - - - - - - -
30/04:30pm 28.5 NE 12 17 1007.7 - 0.0 - - - - - - -
30/04:00pm 28.7 NNE 12 16 1007.8 - 0.0 - - - - - - -
30/03:30pm 28.9 NE 12 17 1008.1 - 0.0 - - - - - - -
30/03:00pm 29.1 NE 12 16 1008.1 - 0.0 - - - - - - -
30/02:30pm 30.1 NE 12 15 1008.3 - 0.0 - - - - - - -
30/02:00pm 29.6 NNE 12 16 1008.5 - 0.0 - - - - - - -
30/01:30pm 30.3 NNE 12 16 1008.7 - 0.0 - - - - - - -
30/01:00pm 30.1 NNE 11 16 1009.2 - 0.0 - - - - - - -
30/12:30pm 30.1 NNE 11 14 1009.6 - 0.0 - - - - - - -
30/12:00pm 30.2 NE 10 15 1010.1 - 0.0 - - - - - - -
30/11:30am 30.3 NE 10 14 1010.4 - 0.0 - - - - - - -
30/11:00am 29.7 NNE 10 13 1010.9 - 0.0 - - - - - - -
30/10:30am 28.8 NNE 9 13 1011.1 - 0.0 - - - - - - -
30/10:00am 29.1 NE 8 13 1011.2 - 0.0 - - - - - - -
30/09:30am 28.6 NNE 5 7 1011.5 - 0.0 - - - - - - -
30/09:00am 27.9 NNE 3 7 1011.6 - 0.0 - - - - - - -
30/08:30am 27.0 N 4 6 1011.7 - 0.0 - - - - - - -
30/08:00am 26.5 ESE 3 5 1011.7 - 0.0 - - - - - - -
30/07:30am 25.3 SE 5 7 1011.7 - 0.0 - - - - - - -
30/07:00am 23.6 SSW 4 6 1011.6 - 0.0 - - - - - - -
30/06:30am 21.7 SSW 1 3 1011.4 - 0.0 - - - - - - -
30/06:00am 20.2 SW 3 4 1011.3 - 0.0 - - - - - - -
30/05:30am 19.3 SW 3 4 1010.9 - 0.0 - - - - - - -
30/05:00am 19.3 CALM 0 0 1010.5 - 0.0 - - - - - - -
30/04:30am 19.5 CALM 0 1 1010.1 - 0.0 - - - - - - -
30/04:00am 19.8 SSW 3 4 1009.8 - 0.0 - - - - - - -

Other Formats:

Comma delimited format used in spreadsheet applications
http://www.bom.gov.au/fwo/IDQ60701/IDQ60701.95369.axf

JavaScript Object Notation format (JSON) in row-major order
http://www.bom.gov.au/fwo/IDQ60701/IDQ60701.95369.json